Time;durP1;ratioP1;P1;durP2;ratioP2;P2;SDS_P1;SDS_P2;PMS_P1;PMS_P2;Temp;Humidity;BMP_temperature;BMP_pressure;BME280_temperature;BME280_humidity;BME280_pressure;Samples;Min_cycle;Max_cycle;Signal;HPM_P1;HPM_P2
2021/06/24 00:00:00;;;;;;;20.08;17.77;;;;;;;18.89;69.18;99065.97;3548595;40;20052;-66
2021/06/24 00:02:29;;;;;;;20.10;18.00;;;;;;;18.86;69.21;99071.78;3548335;40;20054;-67
2021/06/24 00:04:57;;;;;;;20.35;18.23;;;;;;;18.79;69.26;99063.91;3550093;40;20074;-67
2021/06/24 00:07:25;;;;;;;19.60;17.58;;;;;;;18.75;69.42;99062.78;3550173;40;20053;-67
2021/06/24 00:09:52;;;;;;;22.10;19.35;;;;;;;18.70;69.89;99055.47;3550040;40;20055;-66
2021/06/24 00:12:21;;;;;;;21.23;19.02;;;;;;;18.66;69.32;99053.47;3549899;40;20292;-66
2021/06/24 00:14:49;;;;;;;19.73;17.67;;;;;;;18.60;69.65;99057.91;3552817;40;20371;-64
2021/06/24 00:17:17;;;;;;;20.40;18.38;;;;;;;18.64;70.10;99053.69;3554323;40;20339;-65
2021/06/24 00:19:46;;;;;;;19.83;17.83;;;;;;;18.67;69.67;99050.53;3552614;40;20400;-65
2021/06/24 00:22:14;;;;;;;21.60;17.70;;;;;;;18.72;69.81;99049.84;3551041;40;20050;-65
2021/06/24 00:24:42;;;;;;;19.95;17.90;;;;;;;18.76;69.12;99054.50;3550814;40;20038;-65
2021/06/24 00:27:09;;;;;;;21.77;17.17;;;;;;;18.83;69.27;99050.88;3550500;40;20078;-63
2021/06/24 00:29:37;;;;;;;19.20;17.25;;;;;;;18.86;68.94;99043.16;3550053;40;20050;-64
2021/06/24 00:32:06;;;;;;;19.67;17.23;;;;;;;18.85;69.37;99046.06;3550045;40;20086;-64
2021/06/24 00:34:34;;;;;;;23.40;18.77;;;;;;;18.81;69.26;99046.53;3550080;40;20048;-65
2021/06/24 00:37:03;;;;;;;19.35;17.20;;;;;;;18.72;69.20;99045.31;3549709;40;20050;-66
2021/06/24 00:39:31;;;;;;;19.73;17.60;;;;;;;18.73;69.63;99046.13;3549882;40;20034;-65
2021/06/24 00:42:01;;;;;;;18.88;17.00;;;;;;;18.73;69.55;99044.25;3548980;40;20050;-65
2021/06/24 00:44:28;;;;;;;23.30;18.75;;;;;;;18.71;69.71;99049.03;3549900;40;20050;-65
2021/06/24 00:46:57;;;;;;;21.10;18.20;;;;;;;18.72;69.25;99049.84;3548712;40;20069;-65
2021/06/24 00:49:25;;;;;;;20.67;18.58;;;;;;;18.67;69.49;99047.06;3550037;40;20160;-65
2021/06/24 00:51:55;;;;;;;20.83;17.27;;;;;;;18.70;69.75;99044.75;3548890;40;20051;-64
2021/06/24 00:54:24;;;;;;;20.65;17.15;;;;;;;18.71;69.71;99049.03;3549398;40;20050;-65
2021/06/24 00:56:52;;;;;;;23.20;16.60;;;;;;;18.73;69.58;99048.78;3548650;40;20050;-67
2021/06/24 00:59:22;;;;;;;21.52;19.27;;;;;;;18.65;69.72;99052.63;3548738;40;20058;-66
2021/06/24 01:01:50;;;;;;;20.45;18.33;;;;;;;18.53;70.37;99038.47;3548653;40;20509;-67
2021/06/24 01:04:21;;;;;;;21.23;18.98;;;;;;;18.32;71.34;99039.94;3549742;40;20054;-66
2021/06/24 01:06:50;;;;;;;26.63;20.13;;;;;;;18.35;71.23;99057.41;3549636;40;20372;-67
2021/06/24 01:09:24;;;;;;;24.73;22.03;;;;;;;18.17;72.73;99053.03;3548873;40;20060;-67
2021/06/24 01:11:54;;;;;;;27.08;22.88;;;;;;;18.16;73.29;99046.84;3548691;40;20357;-67
2021/06/24 01:14:23;;;;;;;32.85;22.45;;;;;;;18.07;74.03;99042.91;3548159;40;20050;-67
2021/06/24 01:16:53;;;;;;;26.40;21.77;;;;;;;17.95;74.12;99042.09;3549070;40;20156;-68
2021/06/24 01:19:22;;;;;;;24.58;18.77;;;;;;;17.85;75.07;99041.91;3548858;40;20425;-68
2021/06/24 01:21:51;;;;;;;21.00;18.77;;;;;;;17.86;75.31;99038.97;3549891;40;20050;-67
2021/06/24 01:24:21;;;;;;;23.27;19.98;;;;;;;17.78;75.56;99050.03;3549444;40;20054;-67
2021/06/24 01:26:49;;;;;;;29.73;19.50;;;;;;;17.81;75.65;99046.91;3548215;40;20442;-66
2021/06/24 01:29:17;;;;;;;28.05;18.85;;;;;;;17.93;75.48;99046.91;3548517;40;20054;-67
2021/06/24 01:31:45;;;;;;;28.95;22.25;;;;;;;17.91;75.63;99044.44;3549759;40;20439;-67
2021/06/24 01:34:14;;;;;;;24.35;20.33;;;;;;;17.83;76.30;99050.13;3549531;40;20128;-67
2021/06/24 01:36:42;;;;;;;29.40;22.00;;;;;;;17.64;76.75;99048.63;3548116;40;20058;-68
2021/06/24 01:39:16;;;;;;;23.05;20.65;;;;;;;17.65;76.84;99053.72;3549327;40;20066;-67
2021/06/24 01:41:54;;;;;;;25.75;23.13;;;;;;;17.74;77.21;99052.34;3549648;40;20379;-67
2021/06/24 01:44:31;;;;;;;25.50;22.95;;;;;;;17.72;77.42;99053.63;3549383;40;20062;-67
2021/06/24 01:47:00;;;;;;;25.38;22.88;;;;;;;17.69;77.44;99048.72;3548382;40;20407;-66
2021/06/24 01:49:28;;;;;;;26.38;23.40;;;;;;;17.68;77.92;99047.13;3549254;40;20054;-67
2021/06/24 01:51:57;;;;;;;26.08;23.55;;;;;;;17.68;78.21;99041.78;3548864;40;20061;-67
2021/06/24 01:54:25;;;;;;;23.30;19.73;;;;;;;17.70;78.24;99037.78;3549499;40;20054;-66
2021/06/24 01:56:54;;;;;;;17.55;15.77;;;;;;;17.62;78.28;99030.13;3552512;40;20646;-66
2021/06/24 01:59:23;;;;;;;15.18;12.30;;;;;;;17.53;77.79;99028.84;3554253;40;20057;-67
2021/06/24 02:02:00;;;;;;;12.35;11.15;;;;;;;17.39;78.09;99033.63;3553657;40;20042;-67
2021/06/24 02:04:47;;;;;;;11.23;10.23;;;;;;;17.35;78.42;99027.09;3549528;40;20065;-67
2021/06/24 02:07:18;;;;;;;9.93;9.00;;;;;;;17.33;78.87;99031.84;3549103;40;20054;-67
2021/06/24 02:10:12;;;;;;;9.47;8.67;;;;;;;17.29;78.58;99033.38;3549436;40;20066;-67
2021/06/24 02:12:50;;;;;;;7.40;6.32;;;;;;;17.18;78.36;99034.97;3548316;40;20501;-66
2021/06/24 02:15:18;;;;;;;5.63;5.05;;;;;;;17.13;78.32;99031.34;3548465;40;20125;-65
2021/06/24 02:17:47;;;;;;;6.60;6.00;;;;;;;17.12;78.91;99019.88;3548434;40;20479;-67
2021/06/24 02:20:18;;;;;;;5.97;5.22;;;;;;;17.11;79.10;99018.25;3549602;40;20085;-66
2021/06/24 02:22:54;;;;;;;5.68;5.05;;;;;;;17.14;78.68;99023.09;3548222;40;20049;-64
2021/06/24 02:25:27;;;;;;;5.45;4.93;;;;;;;17.17;78.68;99025.31;3551616;40;20050;-66
2021/06/24 02:28:15;;;;;;;5.30;4.85;;;;;;;17.19;78.20;99020.59;3555886;40;20122;-65
2021/06/24 02:31:15;;;;;;;4.68;4.28;;;;;;;17.13;78.12;99010.81;3551662;40;20408;-66
2021/06/24 02:33:45;;;;;;;4.93;4.43;;;;;;;17.08;78.00;99016.84;3552004;40;20065;-66
2021/06/24 02:36:22;;;;;;;4.93;4.00;;;;;;;17.06;78.23;99010.09;3549508;40;20043;-65
2021/06/24 02:38:51;;;;;;;3.65;3.35;;;;;;;17.12;78.67;99009.19;3550059;40;20054;-67
2021/06/24 02:41:19;;;;;;;4.57;4.00;;;;;;;17.17;78.03;99025.31;3549662;40;20066;-66
2021/06/24 02:43:50;;;;;;;4.50;4.10;;;;;;;17.08;78.03;99026.72;3548280;40;20393;-68
2021/06/24 02:46:18;;;;;;;3.60;3.30;;;;;;;17.05;78.48;99029.84;3548010;40;20432;-66
2021/06/24 02:48:53;;;;;;;4.40;4.00;;;;;;;17.06;78.71;99039.47;3548240;40;20046;-65
2021/06/24 02:51:31;;;;;;;4.38;3.80;;;;;;;17.05;78.82;99044.00;3548174;40;20056;-65
2021/06/24 02:54:13;;;;;;;3.90;3.60;;;;;;;17.03;78.83;99048.75;3549364;40;20054;-65
2021/06/24 02:56:41;;;;;;;4.28;3.53;;;;;;;17.06;78.85;99058.16;3547667;40;20057;-66
2021/06/24 02:59:30;;;;;;;3.72;3.42;;;;;;;17.08;78.61;99072.13;3549026;40;20047;-65
2021/06/24 03:02:02;;;;;;;3.95;3.33;;;;;;;17.07;78.48;99079.31;3548325;40;20344;-65
2021/06/24 03:04:34;;;;;;;3.60;3.30;;;;;;;17.02;78.77;99079.19;3549405;40;20189;-66
2021/06/24 03:07:02;;;;;;;4.38;3.80;;;;;;;17.03;78.61;99083.47;3548705;40;20050;-67
2021/06/24 03:09:35;;;;;;;3.08;2.80;;;;;;;17.06;79.27;99084.88;3547841;40;20042;-67
2021/06/24 03:12:04;;;;;;;3.72;3.42;;;;;;;17.15;78.57;99088.88;3548254;40;20053;-67
2021/06/24 03:14:37;;;;;;;4.03;3.15;;;;;;;17.17;78.20;99081.41;3548020;40;20082;-65
2021/06/24 03:17:06;;;;;;;2.83;2.55;;;;;;;17.15;77.83;99074.69;3548654;40;20050;-65
2021/06/24 03:19:34;;;;;;;2.95;2.70;;;;;;;17.17;78.06;99078.75;3547798;40;20046;-66
2021/06/24 03:22:09;;;;;;;3.25;2.70;;;;;;;17.17;77.79;99084.09;3547802;40;20058;-65
2021/06/24 03:24:48;;;;;;;2.90;2.70;;;;;;;17.15;77.67;99072.03;3547628;40;20389;-65
2021/06/24 03:27:17;;;;;;;3.22;2.50;;;;;;;17.12;77.92;99065.28;3539579;40;20344;-67
2021/06/24 03:30:09;;;;;;;2.88;2.67;;;;;;;17.12;77.79;99069.81;3548948;40;20105;-66
2021/06/24 03:32:37;;;;;;;;;;;;;;;17.04;77.60;99057.59;3549264;40;20061;-66
2021/06/24 03:35:06;;;;;;;3.15;2.75;;;;;;;16.90;77.97;99054.31;3547598;40;19937;-68
2021/06/24 03:37:36;;;;;;;3.15;2.67;;;;;;;16.93;78.13;99055.69;3548209;40;20046;-67
2021/06/24 03:40:06;;;;;;;3.35;3.00;;;;;;;16.83;78.05;99046.38;3549394;40;20081;-67
2021/06/24 03:42:34;;;;;;;2.75;2.55;;;;;;;16.82;78.38;99049.28;3550540;40;20337;-66
2021/06/24 03:45:05;;;;;;;6.10;3.28;;;;;;;16.84;78.36;99049.84;3550043;40;20062;-67
2021/06/24 03:47:33;;;;;;;10.95;8.13;;;;;;;16.86;78.39;99041.59;3549950;40;20057;-66
2021/06/24 03:50:01;;;;;;;3.75;3.33;;;;;;;16.84;78.38;99037.31;3549292;40;20046;-67
2021/06/24 03:52:31;;;;;;;11.30;10.10;;;;;;;16.93;78.21;99039.66;3549260;40;20050;-67
2021/06/24 03:54:59;;;;;;;6.07;3.47;;;;;;;16.97;78.53;99032.81;3549015;40;20042;-67
2021/06/24 03:57:28;;;;;;;3.75;2.92;;;;;;;16.98;78.22;99039.78;3548907;40;20054;-67
2021/06/24 04:00:06;;;;;;;4.70;3.40;;;;;;;16.99;78.19;99033.44;3548973;40;20054;-67
2021/06/24 04:02:45;;;;;;;3.97;3.58;;;;;;;17.05;78.25;99032.50;3550108;40;20431;-67
2021/06/24 04:05:31;;;;;;;4.07;3.20;;;;;;;17.18;77.95;99029.63;3549018;40;20065;-65
2021/06/24 04:08:04;;;;;;;4.97;3.05;;;;;;;17.31;77.58;99033.97;3549053;40;20047;-66
2021/06/24 04:10:35;;;;;;;5.50;2.92;;;;;;;17.37;77.08;99033.03;3549017;40;20050;-66
2021/06/24 04:13:04;;;;;;;4.85;2.80;;;;;;;17.38;77.10;99031.97;3549062;40;20431;-66
2021/06/24 04:15:36;;;;;;;4.47;3.70;;;;;;;17.35;76.88;99032.47;3548993;40;20073;-66
2021/06/24 04:18:06;;;;;;;4.80;3.72;;;;;;;17.34;77.21;99028.94;3548606;40;20069;-66
2021/06/24 04:20:38;;;;;;;4.90;3.65;;;;;;;17.26;77.18;99034.63;3548826;40;20420;-66
2021/06/24 04:23:08;;;;;;;3.58;3.13;;;;;;;17.25;77.47;99027.66;3548984;40;20046;-66
2021/06/24 04:25:50;;;;;;;10.07;3.22;;;;;;;17.20;77.25;99022.19;3548638;40;20054;-66
2021/06/24 04:28:18;;;;;;;7.32;3.97;;;;;;;17.21;77.78;99028.34;3550013;40;20050;-65
2021/06/24 04:31:02;;;;;;;7.57;4.38;;;;;;;17.14;77.69;99027.63;3549276;40;20042;-66
2021/06/24 04:33:33;;;;;;;5.82;4.97;;;;;;;17.08;77.84;99022.19;3548980;40;20156;-65
2021/06/24 04:36:21;;;;;;;4.47;3.70;;;;;;;16.91;77.78;99015.88;3549580;40;20046;-65
2021/06/24 04:38:54;;;;;;;4.75;3.60;;;;;;;16.88;78.40;99007.50;3549011;40;20062;-65
2021/06/24 04:41:22;;;;;;;4.13;3.40;;;;;;;16.93;78.08;99011.09;3548964;40;20054;-65
2021/06/24 04:44:11;;;;;;;4.10;3.50;;;;;;;16.91;78.37;99007.88;3549332;40;20046;-65
2021/06/24 04:46:41;;;;;;;3.78;3.17;;;;;;;16.96;78.79;98999.16;3553352;40;20086;-67
2021/06/24 04:49:09;;;;;;;3.90;3.00;;;;;;;17.00;78.07;98997.66;3556491;40;20053;-66
2021/06/24 04:51:56;;;;;;;3.88;3.35;;;;;;;16.97;78.26;98995.44;3556307;40;20057;-66
2021/06/24 04:54:37;;;;;;;5.22;3.90;;;;;;;16.98;78.34;98986.38;3555663;40;20417;-67
2021/06/24 04:57:06;;;;;;;6.13;3.75;;;;;;;16.99;78.30;98986.16;3551243;40;20061;-67
2021/06/24 04:59:57;;;;;;;3.65;3.13;;;;;;;16.95;78.40;98981.53;3547095;40;20426;-66
2021/06/24 05:02:45;;;;;;;4.50;3.20;;;;;;;17.03;78.67;98976.66;3550787;40;20422;-66
2021/06/24 05:05:28;;;;;;;4.43;3.40;;;;;;;17.18;77.81;98986.88;3548821;40;20031;-66
2021/06/24 05:07:57;;;;;;;4.55;3.10;;;;;;;17.27;77.30;98984.69;3550297;40;20074;-67
2021/06/24 05:10:25;;;;;;;3.70;3.08;;;;;;;17.27;76.84;98988.19;3555139;40;20042;-67
2021/06/24 05:12:53;;;;;;;3.40;2.63;;;;;;;17.20;77.19;98982.13;3551972;40;20053;-66
2021/06/24 05:15:21;;;;;;;5.05;3.63;;;;;;;17.23;77.11;98979.00;3550145;40;20050;-66
2021/06/24 05:17:53;;;;;;;3.97;3.10;;;;;;;17.21;76.99;98982.94;3548806;40;20053;-65
2021/06/24 05:20:22;;;;;;;5.93;3.40;;;;;;;17.11;77.26;98978.19;3549848;40;20046;-66
2021/06/24 05:22:50;;;;;;;4.43;3.92;;;;;;;17.08;77.51;98981.31;3549626;40;20118;-66
2021/06/24 05:25:18;;;;;;;4.32;3.20;;;;;;;17.03;77.67;98973.97;3549977;40;20060;-66
2021/06/24 05:27:45;;;;;;;3.10;2.80;;;;;;;17.00;77.70;98968.28;3549359;40;20082;-66
2021/06/24 05:30:14;;;;;;;4.43;4.03;;;;;;;16.97;77.53;98969.53;3549459;40;20061;-67
2021/06/24 05:32:41;;;;;;;6.97;4.63;;;;;;;16.97;77.68;98971.41;3549994;40;20344;-66
2021/06/24 05:35:12;;;;;;;5.35;3.30;;;;;;;16.96;77.61;98969.78;3549392;40;20042;-66
2021/06/24 05:37:40;;;;;;;4.05;3.42;;;;;;;16.92;77.99;98968.63;3549380;40;20039;-65
2021/06/24 05:40:09;;;;;;;3.03;2.53;;;;;;;16.93;77.70;98975.59;3549760;40;20052;-65
2021/06/24 05:42:37;;;;;;;2.80;2.50;;;;;;;16.95;77.69;98981.53;3548375;40;20050;-66
2021/06/24 05:45:06;;;;;;;3.35;2.83;;;;;;;16.98;78.12;98979.22;3549961;40;20065;-65
2021/06/24 05:47:34;;;;;;;3.47;3.10;;;;;;;17.02;77.66;98982.22;3549259;40;20353;-66
2021/06/24 05:50:03;;;;;;;6.13;3.15;;;;;;;17.08;77.86;98978.63;3548560;40;20332;-66
2021/06/24 05:52:33;;;;;;;6.28;3.17;;;;;;;17.13;77.46;98985.94;3549954;40;20053;-66
2021/06/24 05:55:00;;;;;;;3.50;3.17;;;;;;;17.13;76.76;98980.59;3549436;40;20069;-64
2021/06/24 05:57:28;;;;;;;3.42;2.75;;;;;;;17.09;77.06;98985.59;3548155;40;20046;-66
2021/06/24 05:59:56;;;;;;;2.60;2.40;;;;;;;17.06;76.63;98980.72;3549111;40;20365;-67
2021/06/24 06:02:23;;;;;;;3.85;2.80;;;;;;;17.05;76.70;98979.91;3549424;40;20061;-65
2021/06/24 06:04:51;;;;;;;4.22;3.28;;;;;;;17.09;77.40;98982.91;3548956;40;20302;-65
2021/06/24 06:07:19;;;;;;;9.75;7.90;;;;;;;17.20;77.34;98982.13;3554130;40;20042;-66
2021/06/24 06:09:48;;;;;;;4.78;3.58;;;;;;;17.27;77.22;98982.84;3554571;40;20111;-65
2021/06/24 06:12:16;;;;;;;3.60;3.30;;;;;;;17.28;77.15;98979.13;3553187;40;20042;-65
2021/06/24 06:14:44;;;;;;;3.50;3.20;;;;;;;17.38;77.58;98988.41;3554532;40;20135;-65
2021/06/24 06:17:11;;;;;;;9.43;7.75;;;;;;;17.52;77.09;98987.94;3554301;40;20034;-65
2021/06/24 06:19:39;;;;;;;7.25;5.57;;;;;;;17.58;76.38;98996.88;3553851;40;20355;-66
2021/06/24 06:22:07;;;;;;;5.60;4.15;;;;;;;17.52;76.57;98992.50;3554696;40;20050;-66
2021/06/24 06:24:35;;;;;;;10.82;6.18;;;;;;;17.51;76.22;98999.69;3553884;40;20336;-66
2021/06/24 06:27:04;;;;;;;4.40;3.85;;;;;;;17.47;76.67;99003.88;3553901;40;20046;-67
2021/06/24 06:29:32;;;;;;;6.05;3.90;;;;;;;17.47;76.51;99003.88;3554191;40;20400;-66
2021/06/24 06:32:00;;;;;;;6.10;3.85;;;;;;;17.43;76.50;99004.53;3553708;40;20054;-66
2021/06/24 06:34:28;;;;;;;6.80;4.30;;;;;;;17.43;77.21;99009.91;3554174;40;20124;-66
2021/06/24 06:36:55;;;;;;;4.50;3.72;;;;;;;17.40;76.66;99002.38;3554035;40;20085;-66
2021/06/24 06:39:23;;;;;;;4.13;3.72;;;;;;;17.41;76.92;98998.63;3553473;40;20050;-66
2021/06/24 06:41:51;;;;;;;4.95;3.63;;;;;;;17.44;76.86;99003.53;3553110;40;20341;-67
2021/06/24 06:44:20;;;;;;;4.32;3.42;;;;;;;17.41;76.58;99006.66;3553286;40;20068;-67
2021/06/24 06:46:48;;;;;;;4.32;3.88;;;;;;;17.39;76.97;99001.56;3552747;40;20494;-68
2021/06/24 06:49:16;;;;;;;6.47;4.43;;;;;;;17.45;77.11;99005.97;3552339;40;20056;-65
2021/06/24 06:51:44;;;;;;;6.65;4.07;;;;;;;17.50;77.16;99005.25;3550453;40;20309;-65
2021/06/24 06:54:11;;;;;;;5.60;5.05;;;;;;;17.51;77.39;98998.84;3548023;40;20058;-65
2021/06/24 06:56:45;;;;;;;7.60;4.53;;;;;;;17.53;77.07;99008.28;3548750;40;20060;-66
2021/06/24 06:59:13;;;;;;;5.78;4.60;;;;;;;17.51;77.22;99006.88;3548000;40;20050;-66
2021/06/24 07:01:42;;;;;;;4.70;4.22;;;;;;;17.54;77.14;98995.72;3549229;40;20065;-66
2021/06/24 07:04:10;;;;;;;5.05;4.50;;;;;;;17.54;77.76;99003.75;3548985;40;20057;-65
2021/06/24 07:06:38;;;;;;;5.22;4.25;;;;;;;17.53;77.90;98999.44;3547620;40;20042;-66
2021/06/24 07:09:06;;;;;;;5.88;5.32;;;;;;;17.53;77.73;98994.91;3549689;40;20061;-65
2021/06/24 07:11:34;;;;;;;6.63;4.88;;;;;;;17.56;77.57;98993.66;3548376;40;20058;-66
2021/06/24 07:14:02;;;;;;;5.15;4.40;;;;;;;17.58;77.18;98991.53;3549009;40;20319;-66
2021/06/24 07:16:29;;;;;;;4.55;4.13;;;;;;;17.64;77.57;98995.97;3548650;40;20050;-66
2021/06/24 07:18:59;;;;;;;4.88;4.20;;;;;;;17.66;77.18;98990.38;3549110;40;20062;-67
2021/06/24 07:21:27;;;;;;;3.78;3.42;;;;;;;17.65;76.96;99002.13;3549031;40;20166;-67
2021/06/24 07:23:54;;;;;;;5.70;3.47;;;;;;;17.65;76.81;98999.44;3549348;40;20302;-67
2021/06/24 07:26:22;;;;;;;4.15;3.40;;;;;;;17.70;76.93;98999.56;3548524;40;20054;-66
2021/06/24 07:28:50;;;;;;;4.55;3.60;;;;;;;17.72;77.19;98992.13;3548768;40;20366;-66
2021/06/24 07:31:18;;;;;;;5.45;4.78;;;;;;;17.82;77.19;98998.53;3548848;40;20415;-66
2021/06/24 07:33:46;;;;;;;4.47;4.10;;;;;;;17.88;77.05;99002.13;3548962;40;20396;-66
2021/06/24 07:36:15;;;;;;;5.40;4.90;;;;;;;17.90;76.95;99000.03;3547910;40;20054;-66
2021/06/24 07:38:43;;;;;;;9.88;8.98;;;;;;;17.93;77.22;99007.59;3548292;40;20489;-66
2021/06/24 07:41:11;;;;;;;6.65;5.72;;;;;;;17.99;76.82;99011.16;3548942;40;20046;-66
2021/06/24 07:43:39;;;;;;;5.88;5.20;;;;;;;18.06;77.25;99014.53;3548837;40;20050;-66
2021/06/24 07:46:07;;;;;;;5.53;5.05;;;;;;;18.23;76.75;99015.41;3547545;40;20058;-66
2021/06/24 07:48:34;;;;;;;9.40;7.20;;;;;;;18.37;76.11;99018.66;3548668;40;20062;-66
2021/06/24 07:51:02;;;;;;;6.57;5.53;;;;;;;18.39;76.14;99018.41;3548798;40;20062;-66
2021/06/24 07:53:32;;;;;;;6.38;5.70;;;;;;;18.45;76.15;99018.28;3548752;40;20042;-66
2021/06/24 07:55:59;;;;;;;6.40;5.72;;;;;;;18.51;76.36;99028.00;3548337;40;20062;-67
2021/06/24 07:58:29;;;;;;;10.88;9.80;;;;;;;18.60;75.73;99023.09;3548844;40;20082;-67
2021/06/24 08:01:03;;;;;;;7.97;6.38;;;;;;;18.60;75.97;99020.41;3548971;40;20050;-65
2021/06/24 08:03:31;;;;;;;6.57;5.80;;;;;;;18.66;75.43;99027.50;3548892;40;20049;-67
2021/06/24 08:05:59;;;;;;;8.05;7.22;;;;;;;18.69;75.00;99018.16;3603488;23;20384;-61
2021/06/24 08:08:27;;;;;;;7.10;6.45;;;;;;;18.64;74.41;99018.88;3548648;40;20046;-61
2021/06/24 08:10:56;;;;;;;7.68;7.07;;;;;;;18.61;74.56;99014.00;3547654;40;20419;-60
2021/06/24 08:13:25;;;;;;;10.10;7.13;;;;;;;18.65;75.03;99015.16;3547644;40;20054;-61
2021/06/24 08:15:53;;;;;;;7.10;6.50;;;;;;;18.67;74.84;99004.22;3548284;40;20061;-60
2021/06/24 08:18:22;;;;;;;8.38;7.57;;;;;;;18.56;75.16;99017.41;3549319;40;20054;-61
2021/06/24 08:20:50;;;;;;;7.65;6.95;;;;;;;18.61;75.67;99014.00;3549191;40;20062;-61
2021/06/24 08:23:19;;;;;;;8.27;7.30;;;;;;;18.69;75.51;99018.97;3549823;40;20061;-60
2021/06/24 08:25:48;;;;;;;8.45;7.65;;;;;;;18.75;74.47;99026.09;3550614;40;20046;-60
2021/06/24 08:28:17;;;;;;;10.35;7.97;;;;;;;18.73;74.58;99032.72;3550526;40;20108;-62
2021/06/24 08:30:45;;;;;;;10.30;9.10;;;;;;;18.71;74.34;99034.84;3550599;40;20050;-60
2021/06/24 08:33:14;;;;;;;10.52;9.48;;;;;;;18.74;74.08;99037.88;3550561;40;20398;-61
2021/06/24 08:35:42;;;;;;;9.25;7.88;;;;;;;18.69;74.32;99037.72;3550495;40;20046;-60
2021/06/24 08:38:11;;;;;;;10.73;9.80;;;;;;;18.71;74.88;99034.84;3549970;40;20327;-60
2021/06/24 08:40:39;;;;;;;10.90;9.07;;;;;;;18.68;74.70;99040.63;3549811;40;20057;-61
2021/06/24 08:43:07;;;;;;;13.88;12.57;;;;;;;18.70;74.25;99042.06;3550028;40;20042;-61
2021/06/24 08:45:38;;;;;;;13.93;12.68;;;;;;;18.66;73.87;99037.41;3549756;40;20082;-60
2021/06/24 08:48:12;;;;;;;10.85;9.95;;;;;;;18.62;74.62;99044.28;3549376;40;20100;-61
2021/06/24 08:50:43;;;;;;;11.32;10.10;;;;;;;18.67;74.07;99034.47;3549547;40;20053;-62
2021/06/24 08:53:11;;;;;;;14.05;12.75;;;;;;;18.59;73.62;99045.56;3550016;40;20050;-61
2021/06/24 08:55:43;;;;;;;15.40;12.93;;;;;;;18.50;74.15;99047.81;3549059;40;20054;-61
2021/06/24 08:58:11;;;;;;;15.07;13.75;;;;;;;18.53;74.03;99054.53;3549565;40;20059;-62
2021/06/24 09:00:40;;;;;;;12.13;10.93;;;;;;;18.49;74.48;99054.22;3549906;40;20304;-61
2021/06/24 09:03:16;;;;;;;16.27;14.57;;;;;;;18.54;74.43;99040.94;3548567;40;20054;-61
2021/06/24 09:05:49;;;;;;;13.68;12.43;;;;;;;18.49;74.58;99051.56;3549706;40;20051;-61
2021/06/24 09:08:27;;;;;;;13.38;12.18;;;;;;;18.60;74.71;99049.06;3549583;40;20114;-61
2021/06/24 09:11:16;;;;;;;15.07;13.32;;;;;;;18.66;74.47;99050.78;3549661;40;20086;-60
2021/06/24 09:13:46;;;;;;;13.80;12.55;;;;;;;18.67;74.64;99047.06;3549597;40;20054;-61
2021/06/24 09:16:23;;;;;;;14.82;13.45;;;;;;;18.64;74.56;99051.00;3549326;40;20046;-61
2021/06/24 09:18:52;;;;;;;14.55;13.23;;;;;;;18.62;74.04;99046.97;3549506;40;20053;-62
2021/06/24 09:21:22;;;;;;;12.90;11.77;;;;;;;18.60;74.30;99049.88;3549569;40;20057;-62
2021/06/24 09:23:51;;;;;;;12.88;11.73;;;;;;;18.62;74.67;99050.44;3549610;40;20058;-61
2021/06/24 09:26:20;;;;;;;13.85;12.65;;;;;;;18.67;74.33;99049.72;3549343;40;20332;-62
2021/06/24 09:28:51;;;;;;;9.98;9.07;;;;;;;18.66;74.21;99040.91;3549460;40;20058;-60
2021/06/24 09:31:26;;;;;;;11.82;10.82;;;;;;;18.84;74.07;99053.28;3549748;40;20086;-61
2021/06/24 09:33:55;;;;;;;15.25;13.82;;;;;;;18.90;74.14;99051.50;3549956;40;20057;-61
2021/06/24 09:36:36;;;;;;;13.10;12.00;;;;;;;18.86;74.57;99047.69;3548181;40;20047;-62
2021/06/24 09:39:07;;;;;;;16.20;14.80;;;;;;;18.74;73.40;99051.25;3550204;40;20054;-62
2021/06/24 09:41:35;;;;;;;14.48;13.30;;;;;;;18.64;74.10;99045.66;3549788;40;20054;-62
2021/06/24 09:44:20;;;;;;;13.23;12.02;;;;;;;18.59;74.38;99050.13;3549572;40;20054;-62
2021/06/24 09:46:49;;;;;;;11.50;10.50;;;;;;;18.48;74.96;99051.75;3549058;40;20054;-63
2021/06/24 09:49:30;;;;;;;14.25;12.93;;;;;;;18.49;75.42;99061.41;3549299;40;20046;-62
2021/06/24 09:52:00;;;;;;;14.70;13.32;;;;;;;18.46;75.47;99053.88;3548484;40;20324;-63
2021/06/24 09:54:37;;;;;;;14.20;12.90;;;;;;;18.48;75.20;99060.59;3549588;40;20404;-62
2021/06/24 09:57:06;;;;;;;12.77;11.60;;;;;;;18.47;75.44;99060.84;3549168;40;20058;-62
2021/06/24 09:59:36;;;;;;;11.82;10.73;;;;;;;18.49;75.03;99058.75;3549582;40;20409;-62
2021/06/24 10:02:11;;;;;;;11.52;10.52;;;;;;;18.47;75.03;99059.00;3549343;40;20058;-62
2021/06/24 10:04:41;;;;;;;11.60;10.70;;;;;;;18.49;74.96;99053.38;3548199;40;20061;-62
2021/06/24 10:07:12;;;;;;;10.82;9.70;;;;;;;18.45;74.86;99057.59;3549321;40;20049;-61
2021/06/24 10:09:41;;;;;;;14.07;12.85;;;;;;;18.38;75.51;99055.06;3549271;40;20050;-62
2021/06/24 10:12:12;;;;;;;12.27;11.18;;;;;;;18.54;75.98;99048.97;3548591;40;20053;-61
2021/06/24 10:14:44;;;;;;;12.13;11.02;;;;;;;18.72;75.18;99053.34;3549173;40;20046;-62
2021/06/24 10:17:14;;;;;;;12.77;11.68;;;;;;;18.75;75.05;99052.88;3548998;40;20054;-62
2021/06/24 10:19:44;;;;;;;11.75;10.75;;;;;;;18.67;74.67;99047.88;3548168;40;20053;-65
2021/06/24 10:22:15;;;;;;;11.13;10.18;;;;;;;18.68;74.98;99044.13;3550025;40;20044;-62
2021/06/24 10:24:49;;;;;;;11.25;10.15;;;;;;;18.93;75.63;99035.78;3552505;40;20050;-61
2021/06/24 10:27:18;;;;;;;10.20;9.30;;;;;;;19.27;74.85;99033.16;3550616;40;20061;-61
2021/06/24 10:29:48;;;;;;;9.60;8.75;;;;;;;19.57;73.64;99040.84;3549575;40;20058;-62
2021/06/24 10:32:32;;;;;;;10.27;9.27;;;;;;;19.69;72.89;99038.91;3549061;40;20396;-62
2021/06/24 10:35:02;;;;;;;9.40;8.63;;;;;;;19.74;72.08;99038.97;3552155;40;20399;-61
2021/06/24 10:37:31;;;;;;;9.48;8.68;;;;;;;19.86;72.31;99038.88;3549516;40;20061;-61
2021/06/24 10:40:02;;;;;;;9.90;8.75;;;;;;;20.14;72.55;99035.22;3549339;40;20045;-61
2021/06/24 10:42:33;;;;;;;8.40;7.70;;;;;;;20.34;70.36;99031.97;3549336;40;20046;-60
2021/06/24 10:45:02;;;;;;;13.60;8.68;;;;;;;20.39;70.63;99036.59;3549395;40;20034;-61
2021/06/24 10:47:39;;;;;;;8.85;7.93;;;;;;;20.52;70.83;99033.56;3548552;40;20050;-61
2021/06/24 10:50:50;;;;;;;6.63;6.03;;;;;;;20.53;69.68;99030.63;3549669;40;20423;-61
2021/06/24 10:53:48;;;;;;;7.80;7.10;;;;;;;20.50;69.62;99035.69;3548979;40;20416;-60
2021/06/24 10:56:34;;;;;;;8.63;7.30;;;;;;;20.51;69.86;99038.13;3547672;40;20050;-60
2021/06/24 10:59:19;;;;;;;7.45;6.75;;;;;;;20.49;69.94;99036.72;3549237;40;20132;-60
2021/06/24 11:01:48;;;;;;;8.43;7.57;;;;;;;20.48;69.45;99038.59;3547593;40;20049;-61
2021/06/24 11:04:36;;;;;;;9.35;8.55;;;;;;;20.38;69.92;99041.16;3548939;40;20056;-61
2021/06/24 11:07:17;;;;;;;10.50;9.50;;;;;;;20.33;70.05;99032.22;3548602;40;20392;-60
2021/06/24 11:10:19;;;;;;;10.07;9.07;;;;;;;20.29;70.32;99035.41;3549514;40;20054;-60
2021/06/24 11:12:59;;;;;;;9.50;8.68;;;;;;;20.29;70.43;99030.06;3548569;40;20056;-61
2021/06/24 11:15:47;;;;;;;10.35;9.40;;;;;;;20.29;70.36;99023.88;3550763;40;20078;-61
2021/06/24 11:18:56;;;;;;;10.88;9.23;;;;;;;20.25;70.66;99034.31;3549019;40;20072;-60
2021/06/24 11:21:53;;;;;;;10.18;9.18;;;;;;;20.29;70.68;99021.19;3548684;40;20323;-60
2021/06/24 11:24:24;;;;;;;8.70;8.00;;;;;;;20.44;70.04;99031.28;3548518;40;20339;-60
2021/06/24 11:26:54;;;;;;;8.93;8.15;;;;;;;20.68;69.67;99024.59;3548169;40;20058;-59
2021/06/24 11:29:33;;;;;;;9.23;8.43;;;;;;;20.86;69.03;99022.59;3547875;40;20038;-60
2021/06/24 11:32:09;;;;;;;9.75;8.95;;;;;;;21.11;68.36;99030.94;3548564;40;20049;-60
2021/06/24 11:34:46;;;;;;;9.23;8.40;;;;;;;21.31;67.83;99027.59;3548501;40;20054;-59
2021/06/24 11:37:16;;;;;;;9.70;8.82;;;;;;;21.27;67.88;99027.31;3548374;40;20054;-60
2021/06/24 11:39:49;;;;;;;9.52;8.63;;;;;;;21.34;67.29;99028.97;3549084;40;20037;-60
2021/06/24 11:42:22;;;;;;;9.35;8.55;;;;;;;21.34;67.60;99026.28;3548561;40;20106;-59
2021/06/24 11:44:52;;;;;;;9.32;8.27;;;;;;;21.28;67.62;99020.84;3548540;40;20047;-60
2021/06/24 11:47:22;;;;;;;9.50;8.55;;;;;;;21.17;67.25;99029.88;3548222;40;20118;-60